Flight Track Log - Related Links

Times and Time Zones

All times are in EDT time to prevent confusion due to time zone crossing. See the USC105 flight status page for this flight to view local times or setup timezone preferences in your user account.

Time Position Orientation Groundspeed Altitude Reporting Facility
EDT Latitude Longitude Course Direction KTS MPH feet Rate Location/Type
Tue 09:56:01 PM 39.8197 -82.9219 50° Northeast 111 128 1,000  Level Indianapolis Center
Tue 09:56:56 PM 39.8361 -82.8967 50° Northeast 105 121 2,100 1,091 Climbing Indianapolis Center
Tue 09:57:51 PM 39.8544 -82.8717 46° Northeast 107 123 3,000 1,000 Climbing Indianapolis Center
Tue 09:58:08 PM 39.8617 -82.8625 44° Northeast 106 122 3,300 1,154 Climbing Indianapolis Center
Tue 09:59:09 PM 39.8900 -82.8400 31° Northeast 112 129 4,500 1,131 Climbing Indianapolis Center
Tue 10:00:10 PM 39.9208 -82.8194 27° Northeast 120 138 5,600 1,024 Climbing Indianapolis Center
Tue 10:01:12 PM 39.9492 -82.7989 29° Northeast 120 138 6,600 683 Climbing Indianapolis Center
Tue 10:02:13 PM 39.9828 -82.7739 30° Northeast 138 159 7,000 197 Climbing Indianapolis Center
Tue 10:03:14 PM 40.0231 -82.7369 35° Northeast 172 198 7,000  Level Indianapolis Center
Tue 10:04:19 PM 40.0631 -82.6936 40° Northeast 170 196 7,000  Level Indianapolis Center
Tue 10:05:16 PM 40.1003 -82.6686 27° Northeast 174 200 7,000  Level Indianapolis Center
Tue 10:06:02 PM 40.1331 -82.6442 30° Northeast 169 194 7,000  Level Indianapolis Center
Tue 10:06:17 PM 40.1417 -82.6386 26° Northeast 169 194 7,000  Level Indianapolis Center
Tue 10:07:18 PM 40.1842 -82.6075 29° Northeast 173 199 7,000  Level Indianapolis Center
Tue 10:08:04 PM 40.2208 -82.5831 27° Northeast 169 194 7,000 -98 Level Indianapolis Center
Tue 10:08:19 PM 40.2250 -82.5789 37° Northeast 166 191 6,900  Descending Indianapolis Center
Tue 10:09:20 PM 40.2689 -82.5483 28° Northeast 169 194 7,000 49 Climbing Indianapolis Center
Tue 10:10:22 PM 40.3094 -82.5186 29° Northeast 167 192 7,000 -49 Level Indianapolis Center
Tue 10:11:23 PM 40.3525 -82.4903 27° Northeast 169 194 6,900  Descending Indianapolis Center
Tue 10:12:24 PM 40.3956 -82.4619 27° Northeast 171 197 7,000 49 Climbing Indianapolis Center
Tue 10:13:25 PM 40.4378 -82.4333 27° Northeast 169 194 7,000  Level Indianapolis Center
Tue 10:14:26 PM 40.4806 -82.4036 28° Northeast 173 199 7,000  Level Indianapolis Center
Tue 10:15:27 PM 40.5228 -82.3756 27° Northeast 169 194 7,000  Level Indianapolis Center
Tue 10:16:28 PM 40.5656 -82.3458 28° Northeast 173 199 7,000  Level Indianapolis Center
Tue 10:17:29 PM 40.6089 -82.3156 28° Northeast 175 201 7,000  Level Indianapolis Center
Tue 10:18:30 PM 40.6517 -82.2861 28° Northeast 173 199 7,000  Level Indianapolis Center
Tue 10:19:31 PM 40.7019 -82.2511 28° Northeast 175 201 7,000  Level Indianapolis Center
Tue 10:20:32 PM 40.7444 -82.2219 27° Northeast 173 199 7,000 49 Level Indianapolis Center
Tue 10:21:33 PM 40.7875 -82.1922 28° Northeast 173 199 7,100  Climbing Indianapolis Center
Tue 10:21:49 PM 40.7939 -82.1903 13° North 175 201 7,000  Descending Cleveland Center
Tue 10:22:56 PM 40.8442 -82.1558 27° Northeast 176 203 7,100 47 Climbing Cleveland Center
Tue 10:23:56 PM 40.8886 -82.1239 29° Northeast 174 200 7,100  Level Cleveland Center
Tue 10:24:57 PM 40.9306 -82.0975 25° Northeast 174 200 7,100  Level Cleveland Center
Tue 10:26:03 PM 40.9811 -82.0628 27° Northeast 175 201 7,100  Level Cleveland Center
Tue 10:26:58 PM 41.0147 -82.0333 33° Northeast 174 200 7,100 -207 Level Cleveland Center
Tue 10:27:59 PM 41.0550 -81.9931 37° Northeast 181 208 6,700 -417 Descending Cleveland Center
Tue 10:28:53 PM 41.0825 -81.9494 50° Northeast 183 211 6,300 -522 Descending Cleveland Center
Tue 10:29:54 PM 41.1144 -81.8922 53° Northeast 176 203 5,700 -545 Descending Cleveland Center
Tue 10:30:54 PM 41.1483 -81.8433 47° Northeast 185 213 5,200 -496 Descending Cleveland Center
Tue 10:31:55 PM 41.1844 -81.7972 44° Northeast 181 208 4,700 -422 Descending Cleveland Center
Tue 10:33:02 PM 41.2244 -81.7453 44° Northeast 181 208 4,300 -331 Descending Cleveland Center
Tue 10:34:02 PM 41.2603 -81.6964 46° Northeast 176 203 4,000 -446 Descending Cleveland Center
Tue 10:35:03 PM 41.2900 -81.6414 54° Northeast 181 208 3,400 -496 Descending Cleveland Center
Tue 10:36:03 PM 41.3381 -81.6258 14° North 183 211 3,000 -198 Descending Cleveland Center
Tue 10:37:04 PM 41.3822 -81.6097 15° North 157 181 3,000 -49 Level Cleveland Center
Tue 10:38:05 PM 41.4239 -81.5883 21° North 155 178 2,900 -275 Descending Cleveland Center
Tue 10:38:53 PM 41.4614 -81.5972 350° North 175 201 2,500 -716 Descending Cleveland Center
Tue 10:39:54 PM 41.5050 -81.6311 330° Northwest 176 203 1,600 -885 Descending Cleveland Center
Tue 10:41:00 PM 41.5167 -81.6667 354° North  Level FlightAware

Login

Don't have an account? Register now (free) for customized features, flight alerts, and more!